createdAt,value
2022-11-07T00:01:50.821Z,7.50
2022-11-07T00:04:17.727Z,7.50
2022-11-07T00:06:44.703Z,7.50
2022-11-07T00:09:11.613Z,7.50
2022-11-07T00:11:38.480Z,7.60
2022-11-07T00:14:05.356Z,7.60
2022-11-07T00:16:33.325Z,7.70
2022-11-07T00:19:00.175Z,7.70
2022-11-07T00:21:26.992Z,7.70
2022-11-07T00:23:53.837Z,7.70
2022-11-07T00:26:20.699Z,7.70
2022-11-07T00:28:47.607Z,7.70
2022-11-07T00:31:15.475Z,7.60
2022-11-07T00:33:43.080Z,7.60
2022-11-07T00:36:16.796Z,7.60
2022-11-07T00:38:44.434Z,7.50
2022-11-07T00:41:11.539Z,7.50
2022-11-07T00:43:38.560Z,7.50
2022-11-07T00:46:07.445Z,7.50
2022-11-07T00:48:35.324Z,7.50
2022-11-07T00:51:08.964Z,7.50
2022-11-07T00:53:35.907Z,7.50
2022-11-07T00:56:04.243Z,7.50
2022-11-07T00:58:31.751Z,7.50
2022-11-07T01:00:59.296Z,7.50
2022-11-07T01:03:44.981Z,7.50
2022-11-07T01:06:12.030Z,7.50
2022-11-07T01:08:39.094Z,7.60
2022-11-07T01:11:07.392Z,7.60
2022-11-07T01:13:34.591Z,7.70
2022-11-07T01:16:01.471Z,7.70
2022-11-07T01:18:28.731Z,7.80
2022-11-07T01:20:55.486Z,7.80
2022-11-07T01:23:22.987Z,7.90
2022-11-07T01:25:49.776Z,8.00
2022-11-07T01:28:16.587Z,8.10
2022-11-07T01:30:44.397Z,8.10
2022-11-07T01:33:11.915Z,8.20
2022-11-07T01:35:39.387Z,8.20
2022-11-07T01:38:06.347Z,8.20
2022-11-07T01:40:56.504Z,8.30
2022-11-07T01:43:23.269Z,8.30
2022-11-07T01:45:50.042Z,8.30
2022-11-07T01:48:16.905Z,8.40
2022-11-07T01:50:44.789Z,8.40
2022-11-07T01:53:11.845Z,8.40
2022-11-07T01:55:38.773Z,8.50
2022-11-07T01:58:12.471Z,8.50
2022-11-07T02:00:40.389Z,8.50
2022-11-07T02:03:13.552Z,8.50
2022-11-07T02:05:48.372Z,8.60
2022-11-07T02:08:17.591Z,8.60
2022-11-07T02:10:44.540Z,8.60
2022-11-07T02:13:18.866Z,8.60
2022-11-07T02:15:45.734Z,8.60
2022-11-07T02:18:12.841Z,8.60
2022-11-07T02:20:39.705Z,8.60
2022-11-07T02:23:12.312Z,8.50
2022-11-07T02:25:39.505Z,8.50
2022-11-07T02:28:09.601Z,8.40
2022-11-07T02:30:36.991Z,8.40
2022-11-07T02:33:04.150Z,8.40
2022-11-07T02:35:34.941Z,8.30
2022-11-07T02:38:09.033Z,8.30
2022-11-07T02:40:35.968Z,8.30
2022-11-07T02:43:04.556Z,8.30
2022-11-07T02:45:39.335Z,8.20
2022-11-07T02:48:06.376Z,8.20
2022-11-07T02:50:33.405Z,8.20
2022-11-07T02:53:00.295Z,8.20
2022-11-07T02:55:27.043Z,8.10
2022-11-07T02:57:54.201Z,8.10
2022-11-07T03:00:21.065Z,8.10
2022-11-07T03:02:48.000Z,8.00
2022-11-07T03:05:16.589Z,8.10
2022-11-07T03:07:44.515Z,8.00
2022-11-07T03:10:12.147Z,8.00
2022-11-07T03:12:39.203Z,8.00
2022-11-07T03:15:07.818Z,8.00
2022-11-07T03:17:34.756Z,8.00
2022-11-07T03:20:01.563Z,8.00
2022-11-07T03:22:28.382Z,8.00
2022-11-07T03:24:55.145Z,8.00
2022-11-07T03:27:22.394Z,8.00
2022-11-07T03:29:49.384Z,8.00
2022-11-07T03:32:16.557Z,7.90
2022-11-07T03:34:43.312Z,8.00
2022-11-07T03:37:10.114Z,7.90
2022-11-07T03:39:36.854Z,7.90
2022-11-07T03:42:03.846Z,8.00
2022-11-07T03:44:30.706Z,8.00
2022-11-07T03:46:58.480Z,8.00
2022-11-07T03:49:25.248Z,8.10
2022-11-07T03:51:52.023Z,8.10
2022-11-07T03:54:18.789Z,8.10
2022-11-07T03:56:45.845Z,8.10
2022-11-07T03:59:12.658Z,8.10
2022-11-07T04:01:39.530Z,8.20
2022-11-07T04:04:06.549Z,8.20
2022-11-07T04:06:33.278Z,8.20
2022-11-07T04:09:00.078Z,8.20
2022-11-07T04:11:45.482Z,8.20
2022-11-07T04:14:31.051Z,8.20
2022-11-07T04:17:16.622Z,8.20
2022-11-07T04:19:43.439Z,8.20
2022-11-07T04:22:10.584Z,8.20
2022-11-07T04:24:41.483Z,8.30
2022-11-07T04:27:30.623Z,8.30
2022-11-07T04:29:57.709Z,8.30
2022-11-07T04:32:24.882Z,8.40
2022-11-07T04:34:52.682Z,8.40
2022-11-07T04:37:19.852Z,8.40
2022-11-07T04:39:46.679Z,8.40
2022-11-07T04:42:13.514Z,8.40
2022-11-07T04:44:40.630Z,8.40
2022-11-07T04:47:07.421Z,8.40
2022-11-07T04:49:34.254Z,8.50
2022-11-07T04:52:01.107Z,8.50
2022-11-07T04:54:27.855Z,8.50
2022-11-07T04:56:54.660Z,8.50
2022-11-07T04:59:21.636Z,8.50
2022-11-07T05:01:48.528Z,8.50
2022-11-07T05:04:15.482Z,8.50
2022-11-07T05:06:42.305Z,8.50
2022-11-07T05:09:14.430Z,8.50
2022-11-07T05:11:41.210Z,8.50
2022-11-07T05:14:08.533Z,8.40
2022-11-07T05:16:35.842Z,8.40
2022-11-07T05:19:02.627Z,8.30
2022-11-07T05:21:29.376Z,8.30
2022-11-07T05:23:56.211Z,8.30
2022-11-07T05:26:22.972Z,8.20
2022-11-07T05:28:49.827Z,8.20
2022-11-07T05:31:17.963Z,8.20
2022-11-07T05:33:44.770Z,8.20
2022-11-07T05:36:17.398Z,8.20
2022-11-07T05:38:47.008Z,8.20
2022-11-07T05:41:15.055Z,8.20
2022-11-07T05:43:41.909Z,8.20
2022-11-07T05:46:09.641Z,8.20
2022-11-07T05:48:36.816Z,8.20
2022-11-07T05:51:05.247Z,8.20
2022-11-07T05:53:32.434Z,8.20
2022-11-07T05:55:59.530Z,8.20
2022-11-07T05:58:26.296Z,8.10
2022-11-07T06:00:53.046Z,8.10
2022-11-07T06:03:20.569Z,8.10
2022-11-07T06:05:47.669Z,8.00
2022-11-07T06:08:15.018Z,8.00
2022-11-07T06:10:43.091Z,7.90
2022-11-07T06:13:14.163Z,7.90
2022-11-07T06:15:42.445Z,7.80
2022-11-07T06:18:16.763Z,7.80
2022-11-07T06:20:43.746Z,7.80
2022-11-07T06:23:10.764Z,7.80
2022-11-07T06:25:38.038Z,7.80
2022-11-07T06:28:09.443Z,7.90
2022-11-07T06:30:36.945Z,7.90
2022-11-07T06:33:07.077Z,8.00
2022-11-07T06:35:34.863Z,8.10
2022-11-07T06:38:03.540Z,8.10
2022-11-07T06:40:31.034Z,8.20
2022-11-07T06:43:10.404Z,8.30
2022-11-07T06:45:38.389Z,8.30
2022-11-07T06:48:05.425Z,8.40
2022-11-07T06:50:32.400Z,8.40
2022-11-07T06:53:04.065Z,8.50
2022-11-07T06:55:31.030Z,8.60
2022-11-07T06:57:59.220Z,8.70
2022-11-07T07:00:26.512Z,8.70
2022-11-07T07:02:58.321Z,8.70
2022-11-07T07:05:25.931Z,8.70
2022-11-07T07:07:55.087Z,8.80
2022-11-07T07:10:22.767Z,8.80
2022-11-07T07:12:49.552Z,8.80
2022-11-07T07:15:16.379Z,8.90
2022-11-07T07:17:43.180Z,8.90
2022-11-07T07:20:10.716Z,8.90
2022-11-07T07:22:37.617Z,8.90
2022-11-07T07:25:04.722Z,8.90
2022-11-07T07:27:31.575Z,9.00
2022-11-07T07:29:58.321Z,9.10
2022-11-07T07:32:25.263Z,9.10
2022-11-07T07:34:54.576Z,9.20
2022-11-07T07:37:21.419Z,9.30
2022-11-07T07:39:48.313Z,9.40
2022-11-07T07:42:15.106Z,9.50
2022-11-07T07:44:44.815Z,9.60
2022-11-07T07:47:11.836Z,9.70
2022-11-07T07:49:38.793Z,9.90
2022-11-07T07:52:06.110Z,10.30
2022-11-07T07:54:33.075Z,10.70
2022-11-07T07:57:01.409Z,11.10
2022-11-07T07:59:28.255Z,11.40
2022-11-07T08:01:57.163Z,11.60
2022-11-07T08:04:24.251Z,11.80
2022-11-07T08:06:51.056Z,12.00
2022-11-07T08:09:17.892Z,12.20
2022-11-07T08:11:44.673Z,12.30
2022-11-07T08:14:11.828Z,12.40
2022-11-07T08:16:38.755Z,12.50
2022-11-07T08:19:05.588Z,12.70
2022-11-07T08:21:32.800Z,12.80
2022-11-07T08:24:00.892Z,12.90
2022-11-07T08:26:27.759Z,13.00
2022-11-07T08:28:55.078Z,13.10
2022-11-07T08:31:22.090Z,13.10
2022-11-07T08:33:50.181Z,13.10
2022-11-07T08:36:17.006Z,13.20
2022-11-07T08:38:44.080Z,13.20
2022-11-07T08:41:11.201Z,13.30
2022-11-07T08:43:37.988Z,13.20
2022-11-07T08:46:04.957Z,13.20
2022-11-07T08:48:31.767Z,13.20
2022-11-07T08:50:59.392Z,13.10
2022-11-07T08:53:27.056Z,13.10
2022-11-07T08:56:04.538Z,13.00
2022-11-07T08:58:31.712Z,13.00
2022-11-07T09:00:58.760Z,13.10
2022-11-07T09:06:14.109Z,13.20
2022-11-07T09:08:41.109Z,13.30
2022-11-07T09:11:08.806Z,13.20
2022-11-07T09:13:36.284Z,13.30
2022-11-07T09:16:05.015Z,13.40
2022-11-07T09:18:32.409Z,13.30
2022-11-07T09:20:59.677Z,13.30
2022-11-07T09:23:27.600Z,13.20
2022-11-07T09:25:58.225Z,13.10
2022-11-07T09:28:25.108Z,13.10
2022-11-07T09:30:56.765Z,13.00
2022-11-07T09:33:23.867Z,13.10
2022-11-07T09:35:51.368Z,13.10
2022-11-07T09:38:19.142Z,13.10
2022-11-07T09:41:28.343Z,13.30
2022-11-07T09:44:22.110Z,13.30
2022-11-07T09:46:57.629Z,13.30
2022-11-07T09:49:54.636Z,13.20
2022-11-07T09:52:43.766Z,13.10
2022-11-07T09:55:19.213Z,13.10
2022-11-07T09:57:47.389Z,13.10
2022-11-07T10:00:21.592Z,13.20
2022-11-07T10:02:59.757Z,13.30
2022-11-07T10:05:29.291Z,13.60
2022-11-07T10:08:05.293Z,13.70
2022-11-07T10:10:41.309Z,13.80
2022-11-07T10:13:16.944Z,13.90
2022-11-07T10:16:04.801Z,14.10
2022-11-07T10:18:34.546Z,14.20
2022-11-07T10:21:37.121Z,14.50
2022-11-07T10:24:16.047Z,14.70
2022-11-07T10:26:45.284Z,14.90
2022-11-07T10:29:21.515Z,15.20
2022-11-07T10:32:11.986Z,15.30
2022-11-07T10:34:46.985Z,15.60
2022-11-07T10:37:15.696Z,15.70
2022-11-07T10:39:42.483Z,15.80
2022-11-07T10:42:15.422Z,15.80
2022-11-07T10:44:44.594Z,15.80
2022-11-07T10:47:16.200Z,15.70
2022-11-07T10:49:55.281Z,15.50
2022-11-07T10:52:22.316Z,15.40
2022-11-07T10:54:49.274Z,15.40
2022-11-07T10:57:18.865Z,15.60
2022-11-07T10:59:56.217Z,15.70
2022-11-07T11:02:27.493Z,15.80
2022-11-07T11:05:00.548Z,16.10
2022-11-07T11:07:35.522Z,16.10
2022-11-07T11:10:03.432Z,16.10
2022-11-07T11:12:34.699Z,16.10
2022-11-07T11:15:10.640Z,16.00
2022-11-07T11:17:37.600Z,15.80
2022-11-07T11:20:08.454Z,15.60
2022-11-07T11:22:42.539Z,15.40
2022-11-07T11:25:18.370Z,15.10
2022-11-07T11:27:47.591Z,15.00
2022-11-07T11:30:20.560Z,14.80
2022-11-07T11:33:11.898Z,14.70
2022-11-07T11:36:29.114Z,14.70
2022-11-07T11:38:56.168Z,14.70
2022-11-07T11:41:50.062Z,14.80
2022-11-07T11:44:24.096Z,14.90
2022-11-07T11:47:25.642Z,15.20
2022-11-07T11:50:00.795Z,15.20
2022-11-07T11:52:29.627Z,15.10
2022-11-07T11:54:57.724Z,14.90
2022-11-07T11:57:35.764Z,14.80
2022-11-07T12:00:18.621Z,14.80
2022-11-07T12:02:54.687Z,14.60
2022-11-07T12:05:40.385Z,14.40
2022-11-07T12:08:31.627Z,14.30
2022-11-07T12:11:33.279Z,14.20
2022-11-07T12:14:34.055Z,14.10
2022-11-07T12:17:25.956Z,14.10
2022-11-07T12:20:09.762Z,14.00
2022-11-07T12:22:51.802Z,14.00
2022-11-07T12:25:25.629Z,14.00
2022-11-07T12:28:24.708Z,13.90
2022-11-07T12:31:10.346Z,13.90
2022-11-07T12:33:44.175Z,13.90
2022-11-07T12:36:22.885Z,13.90
2022-11-07T12:39:03.786Z,14.00
2022-11-07T12:41:34.570Z,14.10
2022-11-07T12:44:29.263Z,14.20
2022-11-07T12:47:01.550Z,14.20
2022-11-07T12:49:43.452Z,14.10
2022-11-07T12:52:22.378Z,14.10
2022-11-07T12:54:59.476Z,14.10
2022-11-07T12:57:31.516Z,14.10
2022-11-07T13:00:27.653Z,14.10
2022-11-07T13:03:14.844Z,14.10
2022-11-07T13:05:48.108Z,14.10
2022-11-07T13:08:38.498Z,14.00
2022-11-07T13:11:28.918Z,14.00
2022-11-07T13:14:04.395Z,14.00
2022-11-07T13:16:36.556Z,13.90
2022-11-07T13:19:11.363Z,13.90
2022-11-07T13:21:43.167Z,14.00
2022-11-07T13:24:22.033Z,14.00
2022-11-07T13:26:49.174Z,14.00
2022-11-07T13:29:37.232Z,14.00
2022-11-07T13:32:15.441Z,14.00
2022-11-07T13:34:55.411Z,14.00
2022-11-07T13:37:32.968Z,14.10
2022-11-07T13:40:20.644Z,14.30
2022-11-07T13:42:48.930Z,14.60
2022-11-07T13:45:26.724Z,14.90
2022-11-07T13:47:58.016Z,15.30
2022-11-07T13:50:43.806Z,15.70
2022-11-07T13:53:23.358Z,15.90
2022-11-07T13:56:03.171Z,16.20
2022-11-07T13:58:34.743Z,16.10
2022-11-07T14:01:19.700Z,15.90
2022-11-07T14:03:46.535Z,15.60
2022-11-07T14:06:14.946Z,15.50
2022-11-07T14:08:46.499Z,15.30
2022-11-07T14:11:20.661Z,15.30
2022-11-07T14:13:52.313Z,15.30
2022-11-07T14:16:22.874Z,15.20
2022-11-07T14:19:06.999Z,15.00
2022-11-07T14:21:36.600Z,15.00
2022-11-07T14:24:18.017Z,15.00
2022-11-07T14:26:44.880Z,15.00
2022-11-07T14:29:22.404Z,14.90
2022-11-07T14:31:49.234Z,14.80
2022-11-07T14:34:22.076Z,14.70
2022-11-07T14:36:51.292Z,14.50
2022-11-07T14:39:20.158Z,14.40
2022-11-07T14:41:47.570Z,14.40
2022-11-07T14:44:28.362Z,14.30
2022-11-07T14:47:05.343Z,14.20
2022-11-07T14:49:37.898Z,14.10
2022-11-07T14:52:05.762Z,14.10
2022-11-07T14:54:41.495Z,14.00
2022-11-07T14:57:12.284Z,13.90
2022-11-07T14:59:39.372Z,13.80
2022-11-07T15:02:23.239Z,13.70
2022-11-07T15:04:51.530Z,13.60
2022-11-07T15:07:23.269Z,13.50
2022-11-07T15:09:58.730Z,13.40
2022-11-07T15:12:54.906Z,13.40
2022-11-07T15:15:32.249Z,13.20
2022-11-07T15:18:27.599Z,13.10
2022-11-07T15:21:01.079Z,13.00
2022-11-07T15:23:31.834Z,12.90
2022-11-07T15:26:11.547Z,12.80
2022-11-07T15:28:47.797Z,12.70
2022-11-07T15:31:21.625Z,12.60
2022-11-07T15:33:48.804Z,12.50
2022-11-07T15:36:17.047Z,12.40
2022-11-07T15:38:45.237Z,12.30
2022-11-07T15:41:20.121Z,12.20
2022-11-07T15:43:48.057Z,12.10
2022-11-07T15:46:34.307Z,12.00
2022-11-07T15:49:02.551Z,11.90
2022-11-07T15:51:34.448Z,11.80
2022-11-07T15:54:01.945Z,11.80
2022-11-07T15:56:42.954Z,11.70
2022-11-07T15:59:21.945Z,11.60
2022-11-07T16:01:51.918Z,11.50
2022-11-07T16:04:19.168Z,11.50
2022-11-07T16:06:47.714Z,11.40
2022-11-07T16:09:19.111Z,11.40
2022-11-07T16:11:46.565Z,11.30
2022-11-07T16:14:42.324Z,11.30
2022-11-07T16:17:02.790Z,11.30
2022-11-07T16:19:30.893Z,11.20
2022-11-07T16:21:57.710Z,11.20
2022-11-07T16:24:24.547Z,11.10
2022-11-07T16:26:51.842Z,11.10
2022-11-07T16:29:18.612Z,11.00
2022-11-07T16:31:45.427Z,11.00
2022-11-07T16:34:12.698Z,11.00
2022-11-07T16:36:40.457Z,10.90
2022-11-07T16:39:14.670Z,10.80
2022-11-07T16:41:41.513Z,10.80
2022-11-07T16:44:08.412Z,10.80
2022-11-07T16:46:38.635Z,10.70
2022-11-07T16:49:31.461Z,10.70
2022-11-07T16:51:58.792Z,10.60
2022-11-07T16:54:26.053Z,10.50
2022-11-07T16:56:53.275Z,10.50
2022-11-07T16:59:22.519Z,10.40
2022-11-07T17:01:50.928Z,10.40
2022-11-07T17:04:18.146Z,10.30
2022-11-07T17:06:47.561Z,10.30
2022-11-07T17:09:17.093Z,10.20
2022-11-07T17:11:44.540Z,10.10
2022-11-07T17:14:11.829Z,10.10
2022-11-07T17:16:42.219Z,10.00
2022-11-07T17:19:14.196Z,9.90
2022-11-07T17:21:46.233Z,9.80
2022-11-07T17:24:13.663Z,9.70
2022-11-07T17:26:40.644Z,9.60
2022-11-07T17:29:12.003Z,9.50
2022-11-07T17:31:39.030Z,9.50
2022-11-07T17:34:06.143Z,9.50
2022-11-07T17:36:38.090Z,9.50
2022-11-07T17:39:11.487Z,9.30
2022-11-07T17:41:42.567Z,9.30
2022-11-07T17:44:10.488Z,9.20
2022-11-07T17:46:41.447Z,9.00
2022-11-07T17:49:12.598Z,8.90
2022-11-07T17:51:40.751Z,8.90
2022-11-07T17:54:09.349Z,8.90
2022-11-07T17:56:36.864Z,8.80
2022-11-07T17:59:07.168Z,8.80
2022-11-07T18:01:37.250Z,8.80
2022-11-07T18:04:06.184Z,8.80
2022-11-07T18:06:38.847Z,8.80
2022-11-07T18:09:07.253Z,8.80
2022-11-07T18:11:35.253Z,8.80
2022-11-07T18:14:02.464Z,8.80
2022-11-07T18:16:31.828Z,8.70
2022-11-07T18:18:59.846Z,8.70
2022-11-07T18:21:27.612Z,8.70
2022-11-07T18:23:54.467Z,8.70
2022-11-07T18:26:30.444Z,8.60
2022-11-07T18:29:02.019Z,8.60
2022-11-07T18:31:28.892Z,8.60
2022-11-07T18:33:57.886Z,8.60
2022-11-07T18:36:25.437Z,8.70
2022-11-07T18:38:52.397Z,8.70
2022-11-07T18:41:22.130Z,8.60
2022-11-07T18:43:49.854Z,8.60
2022-11-07T18:46:22.116Z,8.60
2022-11-07T18:48:50.702Z,8.60
2022-11-07T18:51:23.730Z,8.60
2022-11-07T18:53:52.285Z,8.60
2022-11-07T18:56:20.340Z,8.50
2022-11-07T18:58:47.314Z,8.50
2022-11-07T19:01:15.360Z,8.50
2022-11-07T19:03:42.829Z,8.50
2022-11-07T19:06:12.954Z,8.50
2022-11-07T19:08:41.746Z,8.40
2022-11-07T19:11:12.123Z,8.40
2022-11-07T19:13:42.155Z,8.40
2022-11-07T19:16:10.800Z,8.30
2022-11-07T19:18:38.208Z,8.30
2022-11-07T19:21:05.212Z,8.30
2022-11-07T19:23:32.463Z,8.30
2022-11-07T19:25:59.262Z,8.20
2022-11-07T19:28:26.510Z,8.10
2022-11-07T19:30:53.857Z,8.10
2022-11-07T19:33:20.712Z,8.00
2022-11-07T19:35:57.342Z,8.00
2022-11-07T19:38:24.334Z,8.00
2022-11-07T19:40:51.100Z,7.90
2022-11-07T19:43:18.435Z,7.80
2022-11-07T19:45:45.570Z,7.70
2022-11-07T19:48:12.464Z,7.70
2022-11-07T19:50:39.256Z,7.60
2022-11-07T19:53:06.989Z,7.50
2022-11-07T19:55:35.414Z,7.50
2022-11-07T19:58:02.302Z,7.50
2022-11-07T20:00:30.164Z,7.40
2022-11-07T20:02:57.196Z,7.30
2022-11-07T20:05:24.194Z,7.20
2022-11-07T20:07:59.388Z,7.20
2022-11-07T20:10:29.141Z,7.10
2022-11-07T20:12:56.007Z,7.00
2022-11-07T20:15:22.983Z,6.90
2022-11-07T20:17:49.787Z,6.90
2022-11-07T20:20:16.585Z,6.80
2022-11-07T20:22:47.647Z,6.80
2022-11-07T20:25:14.831Z,6.70
2022-11-07T20:27:41.896Z,6.70
2022-11-07T20:30:09.709Z,6.60
2022-11-07T20:32:36.515Z,6.60
2022-11-07T20:35:04.103Z,6.60
2022-11-07T20:37:31.123Z,6.60
2022-11-07T20:39:58.092Z,6.50
2022-11-07T20:42:24.950Z,6.50
2022-11-07T20:44:51.789Z,6.50
2022-11-07T20:47:18.705Z,6.50
2022-11-07T20:49:45.483Z,6.40
2022-11-07T20:52:13.334Z,6.30
2022-11-07T20:54:40.338Z,6.30
2022-11-07T20:57:07.274Z,6.20
2022-11-07T20:59:35.167Z,6.20
2022-11-07T21:02:03.792Z,6.20
2022-11-07T21:04:44.499Z,6.20
2022-11-07T21:07:22.692Z,6.20
2022-11-07T21:09:49.767Z,6.20
2022-11-07T21:12:16.822Z,6.20
2022-11-07T21:14:43.629Z,6.20
2022-11-07T21:17:10.467Z,6.20
2022-11-07T21:19:37.547Z,6.20
2022-11-07T21:22:05.104Z,6.10
2022-11-07T21:24:32.169Z,6.20
2022-11-07T21:27:00.305Z,6.10
2022-11-07T21:29:29.775Z,6.10
2022-11-07T21:31:57.142Z,6.10
2022-11-07T21:34:24.314Z,6.00
2022-11-07T21:36:51.302Z,6.00
2022-11-07T21:39:21.056Z,5.90
2022-11-07T21:41:49.137Z,5.80
2022-11-07T21:44:45.911Z,5.80
2022-11-07T21:47:13.172Z,5.70
2022-11-07T21:49:40.042Z,5.60
2022-11-07T21:52:06.847Z,5.50
2022-11-07T21:54:33.584Z,5.50
2022-11-07T21:57:00.386Z,5.40
2022-11-07T21:59:27.313Z,5.30
2022-11-07T22:01:55.272Z,5.30
2022-11-07T22:04:22.303Z,5.30
2022-11-07T22:06:49.220Z,5.20
2022-11-07T22:09:18.873Z,5.20
2022-11-07T22:11:46.116Z,5.10
2022-11-07T22:14:15.971Z,5.10
2022-11-07T22:16:42.837Z,5.00
2022-11-07T22:19:12.672Z,5.00
2022-11-07T22:21:40.358Z,4.90
2022-11-07T22:24:07.681Z,4.80
2022-11-07T22:26:34.602Z,4.80
2022-11-07T22:29:01.451Z,4.80
2022-11-07T22:31:30.771Z,4.80
2022-11-07T22:33:59.100Z,4.80
2022-11-07T22:36:26.115Z,4.80
2022-11-07T22:38:53.025Z,4.80
2022-11-07T22:41:22.033Z,4.70
2022-11-07T22:43:50.214Z,4.70
2022-11-07T22:46:29.384Z,4.70
2022-11-07T22:48:58.063Z,4.60
2022-11-07T22:51:31.272Z,4.60
2022-11-07T22:54:06.757Z,4.60
2022-11-07T22:56:35.323Z,4.50
2022-11-07T22:59:02.563Z,4.50
2022-11-07T23:01:32.387Z,4.40
2022-11-07T23:04:01.038Z,4.40
2022-11-07T23:06:29.096Z,4.50
2022-11-07T23:08:58.203Z,4.60
2022-11-07T23:11:49.568Z,4.60
2022-11-07T23:14:19.970Z,4.60
2022-11-07T23:16:49.891Z,4.60
2022-11-07T23:19:18.666Z,4.60
2022-11-07T23:21:45.650Z,4.60
2022-11-07T23:24:13.267Z,4.60
2022-11-07T23:26:40.394Z,4.60
2022-11-07T23:29:16.344Z,4.60
2022-11-07T23:31:45.676Z,4.60
2022-11-07T23:34:13.489Z,4.60
2022-11-07T23:36:43.790Z,4.60
2022-11-07T23:39:15.556Z,4.50
2022-11-07T23:41:43.047Z,4.50
2022-11-07T23:44:10.843Z,4.50
2022-11-07T23:46:56.826Z,4.50
2022-11-07T23:49:42.163Z,4.50
2022-11-07T23:52:09.051Z,4.40
2022-11-07T23:54:54.363Z,4.30
2022-11-07T23:57:21.286Z,4.30
